sensor_id;sensor_type;location;lat;lon;timestamp;P1;durP1;ratioP1;P2;durP2;ratioP2
25129;SDS011;13308;50.860;13.664;2022-11-06T07:02:34;4.32;;;3.92;;
25129;SDS011;13308;50.860;13.664;2022-11-06T07:04:59;4.93;;;4.03;;
25129;SDS011;13308;50.860;13.664;2022-11-06T07:07:24;5.57;;;4.70;;
25129;SDS011;13308;50.860;13.664;2022-11-06T07:09:50;6.00;;;4.50;;
25129;SDS011;13308;50.860;13.664;2022-11-06T07:12:16;5.45;;;4.53;;
25129;SDS011;13308;50.860;13.664;2022-11-06T07:14:41;7.13;;;5.40;;
25129;SDS011;13308;50.860;13.664;2022-11-06T07:17:07;6.78;;;4.85;;
25129;SDS011;13308;50.860;13.664;2022-11-06T07:19:32;8.07;;;5.85;;
25129;SDS011;13308;50.860;13.664;2022-11-06T07:21:57;7.97;;;5.28;;
25129;SDS011;13308;50.860;13.664;2022-11-06T07:24:23;6.18;;;4.75;;
25129;SDS011;13308;50.860;13.664;2022-11-06T07:26:48;6.47;;;5.03;;
25129;SDS011;13308;50.860;13.664;2022-11-06T07:29:13;5.82;;;4.88;;
25129;SDS011;13308;50.860;13.664;2022-11-06T07:31:39;5.97;;;5.05;;
25129;SDS011;13308;50.860;13.664;2022-11-06T07:34:04;7.28;;;5.05;;
25129;SDS011;13308;50.860;13.664;2022-11-06T07:36:29;6.05;;;4.82;;
25129;SDS011;13308;50.860;13.664;2022-11-06T07:38:56;7.53;;;5.18;;
25129;SDS011;13308;50.860;13.664;2022-11-06T07:41:22;7.45;;;5.05;;
25129;SDS011;13308;50.860;13.664;2022-11-06T07:43:48;7.45;;;5.10;;
25129;SDS011;13308;50.860;13.664;2022-11-06T07:46:13;7.55;;;5.43;;
25129;SDS011;13308;50.860;13.664;2022-11-06T07:48:39;6.53;;;5.13;;
25129;SDS011;13308;50.860;13.664;2022-11-06T07:51:05;8.73;;;5.65;;
25129;SDS011;13308;50.860;13.664;2022-11-06T07:53:33;6.35;;;5.55;;
25129;SDS011;13308;50.860;13.664;2022-11-06T07:55:59;7.15;;;5.40;;
25129;SDS011;13308;50.860;13.664;2022-11-06T07:58:25;8.45;;;6.88;;
25129;SDS011;13308;50.860;13.664;2022-11-06T08:00:54;8.10;;;5.80;;
25129;SDS011;13308;50.860;13.664;2022-11-06T08:03:21;7.25;;;5.25;;
25129;SDS011;13308;50.860;13.664;2022-11-06T08:05:48;7.65;;;6.20;;
25129;SDS011;13308;50.860;13.664;2022-11-06T08:08:13;8.32;;;6.57;;
25129;SDS011;13308;50.860;13.664;2022-11-06T08:10:39;8.27;;;6.05;;
25129;SDS011;13308;50.860;13.664;2022-11-06T08:13:05;9.30;;;5.50;;
25129;SDS011;13308;50.860;13.664;2022-11-06T08:15:31;7.13;;;5.40;;
25129;SDS011;13308;50.860;13.664;2022-11-06T08:17:57;9.65;;;5.22;;
25129;SDS011;13308;50.860;13.664;2022-11-06T08:20:23;6.40;;;4.80;;
25129;SDS011;13308;50.860;13.664;2022-11-06T08:22:48;9.20;;;5.13;;
25129;SDS011;13308;50.860;13.664;2022-11-06T08:25:14;6.68;;;5.43;;
25129;SDS011;13308;50.860;13.664;2022-11-06T08:27:39;8.70;;;4.82;;
25129;SDS011;13308;50.860;13.664;2022-11-06T08:30:05;5.40;;;4.75;;
25129;SDS011;13308;50.860;13.664;2022-11-06T08:32:31;6.25;;;5.10;;
25129;SDS011;13308;50.860;13.664;2022-11-06T08:34:56;5.88;;;5.03;;
25129;SDS011;13308;50.860;13.664;2022-11-06T08:37:21;8.57;;;5.20;;
25129;SDS011;13308;50.860;13.664;2022-11-06T08:39:47;5.50;;;4.88;;
25129;SDS011;13308;50.860;13.664;2022-11-06T08:42:12;4.80;;;4.30;;
25129;SDS011;13308;50.860;13.664;2022-11-06T08:44:38;5.63;;;4.25;;
25129;SDS011;13308;50.860;13.664;2022-11-06T08:47:03;6.75;;;4.85;;
25129;SDS011;13308;50.860;13.664;2022-11-06T08:49:29;5.60;;;4.70;;
25129;SDS011;13308;50.860;13.664;2022-11-06T08:51:54;5.43;;;4.53;;
25129;SDS011;13308;50.860;13.664;2022-11-06T08:54:19;5.85;;;5.05;;
25129;SDS011;13308;50.860;13.664;2022-11-06T08:56:45;6.03;;;4.25;;
25129;SDS011;13308;50.860;13.664;2022-11-06T08:59:10;10.30;;;4.43;;
25129;SDS011;13308;50.860;13.664;2022-11-06T09:01:36;4.88;;;4.40;;
25129;SDS011;13308;50.860;13.664;2022-11-06T09:04:01;4.82;;;4.10;;
25129;SDS011;13308;50.860;13.664;2022-11-06T09:06:26;6.80;;;4.80;;
25129;SDS011;13308;50.860;13.664;2022-11-06T09:08:52;7.00;;;4.07;;
25129;SDS011;13308;50.860;13.664;2022-11-06T09:11:17;4.53;;;4.13;;
25129;SDS011;13308;50.860;13.664;2022-11-06T09:13:43;6.68;;;4.35;;
25129;SDS011;13308;50.860;13.664;2022-11-06T09:16:08;8.00;;;4.63;;
25129;SDS011;13308;50.860;13.664;2022-11-06T09:18:33;5.60;;;4.15;;
25129;SDS011;13308;50.860;13.664;2022-11-06T09:20:59;6.13;;;4.38;;
25129;SDS011;13308;50.860;13.664;2022-11-06T09:23:24;6.18;;;5.40;;
25129;SDS011;13308;50.860;13.664;2022-11-06T09:25:49;9.23;;;6.50;;
25129;SDS011;13308;50.860;13.664;2022-11-06T09:28:15;16.73;;;12.18;;
25129;SDS011;13308;50.860;13.664;2022-11-06T09:30:41;40.30;;;21.58;;
25129;SDS011;13308;50.860;13.664;2022-11-06T09:33:06;6.38;;;4.93;;
25129;SDS011;13308;50.860;13.664;2022-11-06T09:35:32;8.40;;;5.85;;
25129;SDS011;13308;50.860;13.664;2022-11-06T09:37:59;26.42;;;14.80;;
25129;SDS011;13308;50.860;13.664;2022-11-06T09:40:33;55.35;;;30.13;;
25129;SDS011;13308;50.860;13.664;2022-11-06T09:46:23;8.45;;;6.80;;
25129;SDS011;13308;50.860;13.664;2022-11-06T09:48:54;4.00;;;3.60;;
25129;SDS011;13308;50.860;13.664;2022-11-06T09:56:46;7.78;;;6.75;;
25129;SDS011;13308;50.860;13.664;2022-11-06T09:59:18;6.55;;;5.10;;
25129;SDS011;13308;50.860;13.664;2022-11-06T10:01:46;6.00;;;5.25;;
25129;SDS011;13308;50.860;13.664;2022-11-06T10:04:20;4.97;;;4.47;;
25129;SDS011;13308;50.860;13.664;2022-11-06T10:06:54;3.78;;;3.35;;
25129;SDS011;13308;50.860;13.664;2022-11-06T10:09:20;7.05;;;6.35;;
25129;SDS011;13308;50.860;13.664;2022-11-06T10:11:48;6.03;;;3.92;;
25129;SDS011;13308;50.860;13.664;2022-11-06T10:14:25;3.88;;;3.50;;
25129;SDS011;13308;50.860;13.664;2022-11-06T10:17:17;3.92;;;3.42;;
25129;SDS011;13308;50.860;13.664;2022-11-06T10:19:59;4.70;;;4.20;;
25129;SDS011;13308;50.860;13.664;2022-11-06T10:31:27;5.72;;;4.20;;
25129;SDS011;13308;50.860;13.664;2022-11-06T10:33:49;5.18;;;4.30;;
25129;SDS011;13308;50.860;13.664;2022-11-06T10:36:26;6.03;;;5.43;;
25129;SDS011;13308;50.860;13.664;2022-11-06T10:39:21;5.50;;;4.18;;
25129;SDS011;13308;50.860;13.664;2022-11-06T10:41:52;6.60;;;5.45;;
25129;SDS011;13308;50.860;13.664;2022-11-06T10:44:25;7.55;;;6.30;;
25129;SDS011;13308;50.860;13.664;2022-11-06T10:47:19;6.97;;;4.78;;
25129;SDS011;13308;50.860;13.664;2022-11-06T10:49:51;11.52;;;7.75;;
25129;SDS011;13308;50.860;13.664;2022-11-06T10:52:40;4.85;;;3.97;;
25129;SDS011;13308;50.860;13.664;2022-11-06T11:00:41;5.88;;;3.90;;
25129;SDS011;13308;50.860;13.664;2022-11-06T11:03:23;3.55;;;3.25;;
25129;SDS011;13308;50.860;13.664;2022-11-06T11:05:50;4.82;;;4.07;;
25129;SDS011;13308;50.860;13.664;2022-11-06T11:11:25;4.03;;;3.70;;
25129;SDS011;13308;50.860;13.664;2022-11-06T11:16:26;3.88;;;3.47;;
25129;SDS011;13308;50.860;13.664;2022-11-06T11:19:21;4.35;;;3.55;;
25129;SDS011;13308;50.860;13.664;2022-11-06T11:24:57;3.20;;;2.75;;
25129;SDS011;13308;50.860;13.664;2022-11-06T11:27:31;6.25;;;3.25;;
25129;SDS011;13308;50.860;13.664;2022-11-06T11:30:02;5.43;;;3.20;;
25129;SDS011;13308;50.860;13.664;2022-11-06T11:32:43;3.70;;;2.95;;
25129;SDS011;13308;50.860;13.664;2022-11-06T11:35:09;4.07;;;3.15;;
25129;SDS011;13308;50.860;13.664;2022-11-06T11:37:35;4.07;;;3.40;;
25129;SDS011;13308;50.860;13.664;2022-11-06T11:42:46;3.40;;;3.10;;
25129;SDS011;13308;50.860;13.664;2022-11-06T11:45:12;3.28;;;2.53;;
25129;SDS011;13308;50.860;13.664;2022-11-06T11:47:45;3.88;;;3.10;;
25129;SDS011;13308;50.860;13.664;2022-11-06T11:50:26;3.85;;;3.20;;
25129;SDS011;13308;50.860;13.664;2022-11-06T11:52:56;3.63;;;3.17;;
25129;SDS011;13308;50.860;13.664;2022-11-06T11:55:24;3.45;;;2.80;;
25129;SDS011;13308;50.860;13.664;2022-11-06T11:57:52;3.53;;;3.13;;
25129;SDS011;13308;50.860;13.664;2022-11-06T12:00:20;4.28;;;3.03;;
25129;SDS011;13308;50.860;13.664;2022-11-06T12:05:21;8.23;;;4.03;;
25129;SDS011;13308;50.860;13.664;2022-11-06T12:07:50;4.88;;;3.55;;
25129;SDS011;13308;50.860;13.664;2022-11-06T12:10:31;5.07;;;3.40;;
25129;SDS011;13308;50.860;13.664;2022-11-06T12:13:04;4.00;;;3.35;;
25129;SDS011;13308;50.860;13.664;2022-11-06T12:15:37;4.63;;;3.47;;
25129;SDS011;13308;50.860;13.664;2022-11-06T12:18:09;6.70;;;3.50;;
25129;SDS011;13308;50.860;13.664;2022-11-06T12:25:53;5.00;;;3.00;;
25129;SDS011;13308;50.860;13.664;2022-11-06T12:28:23;4.53;;;3.47;;
25129;SDS011;13308;50.860;13.664;2022-11-06T12:30:52;4.50;;;3.85;;
25129;SDS011;13308;50.860;13.664;2022-11-06T12:33:25;3.58;;;3.28;;
25129;SDS011;13308;50.860;13.664;2022-11-06T12:35:55;5.53;;;3.83;;
25129;SDS011;13308;50.860;13.664;2022-11-06T12:38:45;6.22;;;3.95;;
25129;SDS011;13308;50.860;13.664;2022-11-06T12:43:53;7.15;;;4.72;;
25129;SDS011;13308;50.860;13.664;2022-11-06T12:58:03;9.45;;;6.85;;
25129;SDS011;13308;50.860;13.664;2022-11-06T13:00:49;9.93;;;6.60;;
25129;SDS011;13308;50.860;13.664;2022-11-06T13:03:34;12.77;;;8.05;;
25129;SDS011;13308;50.860;13.664;2022-11-06T13:08:45;13.93;;;8.10;;
25129;SDS011;13308;50.860;13.664;2022-11-06T13:14:09;11.05;;;7.63;;
25129;SDS011;13308;50.860;13.664;2022-11-06T13:16:47;11.55;;;7.75;;
25129;SDS011;13308;50.860;13.664;2022-11-06T13:30:00;8.88;;;7.57;;
25129;SDS011;13308;50.860;13.664;2022-11-06T13:32:30;12.82;;;8.15;;
25129;SDS011;13308;50.860;13.664;2022-11-06T13:35:00;11.13;;;8.52;;
25129;SDS011;13308;50.860;13.664;2022-11-06T13:37:46;9.90;;;7.78;;
25129;SDS011;13308;50.860;13.664;2022-11-06T13:54:20;11.25;;;8.18;;
25129;SDS011;13308;50.860;13.664;2022-11-06T14:05:41;11.18;;;8.63;;
25129;SDS011;13308;50.860;13.664;2022-11-06T14:08:15;14.57;;;8.73;;
25129;SDS011;13308;50.860;13.664;2022-11-06T14:11:02;15.80;;;9.40;;
25129;SDS011;13308;50.860;13.664;2022-11-06T14:13:31;14.77;;;9.35;;
25129;SDS011;13308;50.860;13.664;2022-11-06T14:18:52;15.75;;;10.10;;
25129;SDS011;13308;50.860;13.664;2022-11-06T14:26:56;16.67;;;9.45;;
25129;SDS011;13308;50.860;13.664;2022-11-06T14:31:58;14.38;;;8.75;;
25129;SDS011;13308;50.860;13.664;2022-11-06T14:34:27;14.93;;;9.82;;
25129;SDS011;13308;50.860;13.664;2022-11-06T14:36:54;15.70;;;9.45;;
25129;SDS011;13308;50.860;13.664;2022-11-06T14:44:51;14.52;;;8.70;;
25129;SDS011;13308;50.860;13.664;2022-11-06T14:49:51;18.48;;;10.80;;
25129;SDS011;13308;50.860;13.664;2022-11-06T14:52:18;17.25;;;9.60;;
25129;SDS011;13308;50.860;13.664;2022-11-06T14:55:04;20.73;;;10.02;;
25129;SDS011;13308;50.860;13.664;2022-11-06T14:57:37;16.95;;;9.02;;
25129;SDS011;13308;50.860;13.664;2022-11-06T15:00:10;17.55;;;9.48;;
25129;SDS011;13308;50.860;13.664;2022-11-06T15:02:38;20.08;;;10.02;;
25129;SDS011;13308;50.860;13.664;2022-11-06T15:05:06;14.07;;;7.93;;
25129;SDS011;13308;50.860;13.664;2022-11-06T15:10:02;14.93;;;9.18;;
25129;SDS011;13308;50.860;13.664;2022-11-06T15:15:57;12.90;;;8.60;;
25129;SDS011;13308;50.860;13.664;2022-11-06T15:18:28;12.40;;;8.45;;
25129;SDS011;13308;50.860;13.664;2022-11-06T15:20:58;12.07;;;8.02;;
25129;SDS011;13308;50.860;13.664;2022-11-06T15:23:32;14.82;;;9.02;;
25129;SDS011;13308;50.860;13.664;2022-11-06T15:27:07;16.80;;;9.55;;
25129;SDS011;13308;50.860;13.664;2022-11-06T15:31:39;13.57;;;8.18;;
25129;SDS011;13308;50.860;13.664;2022-11-06T15:34:19;16.05;;;9.52;;
25129;SDS011;13308;50.860;13.664;2022-11-06T15:36:55;12.30;;;7.75;;
25129;SDS011;13308;50.860;13.664;2022-11-06T15:39:38;12.45;;;7.80;;
25129;SDS011;13308;50.860;13.664;2022-11-06T15:42:08;14.55;;;7.60;;
25129;SDS011;13308;50.860;13.664;2022-11-06T15:44:40;12.93;;;8.50;;
25129;SDS011;13308;50.860;13.664;2022-11-06T15:47:23;15.88;;;8.80;;
25129;SDS011;13308;50.860;13.664;2022-11-06T15:52:42;14.02;;;8.90;;
25129;SDS011;13308;50.860;13.664;2022-11-06T15:55:13;14.93;;;8.80;;
25129;SDS011;13308;50.860;13.664;2022-11-06T15:57:39;16.63;;;9.95;;
25129;SDS011;13308;50.860;13.664;2022-11-06T16:05:28;20.08;;;10.45;;
25129;SDS011;13308;50.860;13.664;2022-11-06T16:07:55;21.20;;;12.20;;
25129;SDS011;13308;50.860;13.664;2022-11-06T16:10:21;18.30;;;10.02;;
25129;SDS011;13308;50.860;13.664;2022-11-06T16:12:49;15.45;;;7.70;;
25129;SDS011;13308;50.860;13.664;2022-11-06T16:18:07;12.60;;;8.82;;
25129;SDS011;13308;50.860;13.664;2022-11-06T16:20:39;12.20;;;7.53;;
25129;SDS011;13308;50.860;13.664;2022-11-06T16:23:05;14.18;;;8.65;;
25129;SDS011;13308;50.860;13.664;2022-11-06T16:25:31;11.05;;;7.45;;
25129;SDS011;13308;50.860;13.664;2022-11-06T16:27:56;11.45;;;6.90;;
25129;SDS011;13308;50.860;13.664;2022-11-06T16:30:22;15.13;;;9.35;;
25129;SDS011;13308;50.860;13.664;2022-11-06T16:32:48;19.55;;;9.35;;
25129;SDS011;13308;50.860;13.664;2022-11-06T16:35:29;11.05;;;7.55;;
25129;SDS011;13308;50.860;13.664;2022-11-06T16:37:56;16.17;;;8.45;;
25129;SDS011;13308;50.860;13.664;2022-11-06T16:40:55;16.85;;;8.93;;
25129;SDS011;13308;50.860;13.664;2022-11-06T16:43:21;11.00;;;7.65;;
25129;SDS011;13308;50.860;13.664;2022-11-06T16:46:05;13.93;;;8.98;;
25129;SDS011;13308;50.860;13.664;2022-11-06T16:48:41;14.93;;;9.40;;
25129;SDS011;13308;50.860;13.664;2022-11-06T16:51:10;13.63;;;8.20;;
25129;SDS011;13308;50.860;13.664;2022-11-06T16:53:58;16.60;;;7.93;;
25129;SDS011;13308;50.860;13.664;2022-11-06T16:56:26;13.68;;;8.23;;
25129;SDS011;13308;50.860;13.664;2022-11-06T16:58:55;13.05;;;7.60;;
25129;SDS011;13308;50.860;13.664;2022-11-06T17:01:26;11.90;;;8.43;;
25129;SDS011;13308;50.860;13.664;2022-11-06T17:03:55;12.75;;;7.25;;
25129;SDS011;13308;50.860;13.664;2022-11-06T17:06:25;12.43;;;7.55;;
25129;SDS011;13308;50.860;13.664;2022-11-06T17:08:58;13.13;;;8.25;;
25129;SDS011;13308;50.860;13.664;2022-11-06T17:11:24;9.50;;;6.28;;
25129;SDS011;13308;50.860;13.664;2022-11-06T17:13:49;10.60;;;6.80;;
25129;SDS011;13308;50.860;13.664;2022-11-06T17:16:16;9.73;;;6.75;;
25129;SDS011;13308;50.860;13.664;2022-11-06T17:18:43;8.25;;;5.80;;
25129;SDS011;13308;50.860;13.664;2022-11-06T17:21:19;8.05;;;5.78;;
25129;SDS011;13308;50.860;13.664;2022-11-06T17:23:49;10.80;;;6.82;;
25129;SDS011;13308;50.860;13.664;2022-11-06T17:28:44;10.95;;;6.07;;
25129;SDS011;13308;50.860;13.664;2022-11-06T17:31:10;10.85;;;6.35;;
25129;SDS011;13308;50.860;13.664;2022-11-06T17:33:37;9.85;;;5.93;;
25129;SDS011;13308;50.860;13.664;2022-11-06T17:36:03;8.73;;;5.85;;
25129;SDS011;13308;50.860;13.664;2022-11-06T17:38:29;8.73;;;6.00;;
